createdAt,value
2024-01-24T00:00:10.459Z,99.90
2024-01-24T00:02:43.069Z,99.90
2024-01-24T00:05:15.554Z,99.90
2024-01-24T00:07:48.571Z,99.90
2024-01-24T00:10:21.900Z,99.90
2024-01-24T00:12:57.091Z,99.90
2024-01-24T00:15:30.340Z,99.90
2024-01-24T00:18:02.939Z,99.90
2024-01-24T00:20:35.777Z,99.90
2024-01-24T00:23:08.339Z,99.90
2024-01-24T00:25:40.746Z,99.90
2024-01-24T00:28:15.345Z,99.90
2024-01-24T00:30:48.102Z,99.90
2024-01-24T00:33:20.928Z,99.90
2024-01-24T00:35:53.368Z,99.90
2024-01-24T00:38:25.739Z,99.90
2024-01-24T00:40:58.343Z,99.90
2024-01-24T00:43:32.847Z,99.90
2024-01-24T00:46:05.469Z,99.90
2024-01-24T00:48:38.017Z,99.90
2024-01-24T00:51:10.620Z,99.90
2024-01-24T00:53:45.334Z,99.90
2024-01-24T00:56:18.473Z,99.90
2024-01-24T00:58:53.312Z,99.90
2024-01-24T01:01:25.732Z,99.90
2024-01-24T01:03:58.598Z,99.90
2024-01-24T01:06:31.395Z,99.90
2024-01-24T01:09:05.034Z,99.90
2024-01-24T01:11:37.493Z,99.90
2024-01-24T01:14:11.510Z,99.90
2024-01-24T01:16:43.877Z,99.90
2024-01-24T01:19:16.348Z,99.90
2024-01-24T01:21:50.137Z,99.90
2024-01-24T01:24:22.746Z,99.90
2024-01-24T01:26:53.618Z,99.90
2024-01-24T01:29:31.241Z,99.90
2024-01-24T01:32:03.879Z,99.90
2024-01-24T01:34:36.389Z,99.90
2024-01-24T01:37:09.337Z,99.90
2024-01-24T01:39:41.831Z,99.90
2024-01-24T01:42:14.417Z,99.90
2024-01-24T01:44:50.331Z,99.90
2024-01-24T01:47:23.814Z,99.90
2024-01-24T01:49:57.483Z,99.90
2024-01-24T01:52:30.166Z,99.90
2024-01-24T01:55:03.021Z,99.90
2024-01-24T01:57:35.653Z,99.90
2024-01-24T02:00:10.948Z,99.90
2024-01-24T02:02:43.467Z,99.90
2024-01-24T02:05:15.952Z,99.90
2024-01-24T02:07:48.831Z,99.90
2024-01-24T02:10:21.396Z,99.90
2024-01-24T02:12:54.105Z,99.90
2024-01-24T02:15:29.674Z,99.90
2024-01-24T02:18:02.423Z,99.90
2024-01-24T02:20:36.422Z,99.90
2024-01-24T02:23:08.844Z,99.90
2024-01-24T02:26:07.145Z,99.90
2024-01-24T02:28:40.073Z,99.90
2024-01-24T02:31:13.269Z,99.90
2024-01-24T02:33:45.727Z,99.90
2024-01-24T02:36:19.098Z,99.90
2024-01-24T02:38:51.660Z,99.90
2024-01-24T02:41:27.753Z,99.90
2024-01-24T02:44:00.119Z,99.90
2024-01-24T02:46:36.067Z,99.90
2024-01-24T02:49:08.974Z,99.90
2024-01-24T02:51:41.707Z,99.90
2024-01-24T02:54:14.446Z,99.90
2024-01-24T02:56:49.810Z,99.90
2024-01-24T02:59:24.771Z,99.90
2024-01-24T03:01:57.090Z,99.90
2024-01-24T03:04:30.505Z,99.90
2024-01-24T03:07:05.016Z,99.90
2024-01-24T03:09:38.035Z,99.90
2024-01-24T03:12:14.391Z,99.90
2024-01-24T03:14:48.769Z,99.90
2024-01-24T03:17:22.594Z,99.90
2024-01-24T03:19:56.718Z,99.90
2024-01-24T03:22:31.296Z,99.90
2024-01-24T03:25:05.683Z,99.90
2024-01-24T03:27:42.730Z,99.90
2024-01-24T03:30:18.288Z,99.90
2024-01-24T03:32:52.324Z,99.90
2024-01-24T03:35:26.821Z,99.90
2024-01-24T03:38:01.832Z,99.90
2024-01-24T03:40:36.477Z,99.90
2024-01-24T03:43:13.952Z,99.90
2024-01-24T03:45:49.409Z,99.90
2024-01-24T03:48:23.870Z,99.90
2024-01-24T03:50:57.389Z,99.90
2024-01-24T03:53:31.806Z,99.90
2024-01-24T03:56:07.732Z,99.90
2024-01-24T03:58:43.843Z,99.90
2024-01-24T04:01:17.827Z,99.90
2024-01-24T04:03:51.788Z,99.90
2024-01-24T04:06:26.425Z,99.90
2024-01-24T04:09:00.756Z,99.90
2024-01-24T04:11:35.024Z,99.90
2024-01-24T04:14:11.378Z,99.90
2024-01-24T04:59:22.962Z,45.70
2024-01-24T05:11:48.963Z,43.60
2024-01-24T05:14:24.531Z,38.70
2024-01-24T05:16:59.028Z,46.50
2024-01-24T05:19:34.289Z,54.70
2024-01-24T05:22:08.580Z,61.90
2024-01-24T05:24:42.418Z,68.20
2024-01-24T05:27:18.936Z,72.20
2024-01-24T05:29:53.080Z,74.90
2024-01-24T05:32:26.840Z,78.00
2024-01-24T05:35:00.624Z,78.50
2024-01-24T05:37:35.790Z,79.70
2024-01-24T05:40:10.780Z,79.30
2024-01-24T05:42:48.670Z,79.00
2024-01-24T05:45:23.030Z,78.60
2024-01-24T05:47:56.835Z,78.80
2024-01-24T05:50:30.531Z,79.50
2024-01-24T05:53:04.313Z,80.00
2024-01-24T05:55:38.107Z,80.70
2024-01-24T05:58:13.951Z,80.50
2024-01-24T06:00:47.779Z,81.90
2024-01-24T06:03:21.459Z,82.20
2024-01-24T06:05:56.670Z,81.50
2024-01-24T06:08:30.800Z,80.80
2024-01-24T06:11:06.034Z,80.90
2024-01-24T06:13:44.078Z,81.20
2024-01-24T06:16:17.742Z,80.50
2024-01-24T06:18:51.304Z,80.60
2024-01-24T06:21:24.973Z,80.50
2024-01-24T06:23:58.894Z,80.20
2024-01-24T06:26:33.151Z,79.60
2024-01-24T06:29:09.403Z,80.60
2024-01-24T06:31:42.990Z,80.60
2024-01-24T06:34:17.316Z,80.20
2024-01-24T06:36:52.303Z,80.20
2024-01-24T06:39:26.562Z,80.70
2024-01-24T06:42:01.342Z,80.50
2024-01-24T06:44:38.007Z,80.10
2024-01-24T06:47:13.808Z,79.40
2024-01-24T06:49:47.831Z,79.40
2024-01-24T06:52:21.298Z,79.20
2024-01-24T06:54:55.249Z,80.40
2024-01-24T06:57:30.149Z,80.20
2024-01-24T07:00:07.438Z,80.30
2024-01-24T07:02:41.352Z,79.60
2024-01-24T07:05:15.855Z,80.00
2024-01-24T07:07:50.097Z,79.90
2024-01-24T07:10:24.528Z,80.10
2024-01-24T07:12:58.833Z,80.60
2024-01-24T07:15:34.356Z,79.80
2024-01-24T07:18:09.362Z,80.70
2024-01-24T07:20:43.171Z,79.40
2024-01-24T07:23:17.290Z,79.30
2024-01-24T07:25:52.845Z,78.90
2024-01-24T07:28:27.447Z,79.00
2024-01-24T07:31:04.405Z,79.40
2024-01-24T07:33:38.671Z,78.70
2024-01-24T07:36:12.972Z,78.20
2024-01-24T07:38:49.440Z,77.50
2024-01-24T07:41:23.336Z,77.90
2024-01-24T07:43:57.787Z,77.10
2024-01-24T07:46:35.550Z,75.90
2024-01-24T07:49:09.351Z,76.10
2024-01-24T07:51:44.334Z,76.10
2024-01-24T07:54:21.162Z,75.80
2024-01-24T07:56:55.871Z,76.50
2024-01-24T07:59:30.202Z,76.60
2024-01-24T08:02:06.427Z,76.10
2024-01-24T08:04:40.595Z,75.90
2024-01-24T08:07:14.982Z,75.50
2024-01-24T08:09:49.028Z,75.70
2024-01-24T08:12:24.266Z,75.60
2024-01-24T08:14:59.357Z,76.50
2024-01-24T08:17:35.153Z,77.60
2024-01-24T08:20:11.148Z,78.20
2024-01-24T08:22:45.423Z,77.40
2024-01-24T08:25:19.598Z,78.30
2024-01-24T08:27:55.333Z,77.90
2024-01-24T08:30:28.905Z,78.10
2024-01-24T08:33:05.227Z,77.60
2024-01-24T08:35:39.201Z,78.00
2024-01-24T08:38:13.416Z,78.00
2024-01-24T08:40:47.496Z,77.70
2024-01-24T08:43:22.586Z,77.70
2024-01-24T08:45:56.472Z,77.50
2024-01-24T08:48:32.853Z,77.50
2024-01-24T08:51:07.198Z,77.20
2024-01-24T08:53:42.294Z,76.70
2024-01-24T08:56:17.549Z,76.00
2024-01-24T08:58:52.420Z,76.20
2024-01-24T09:01:28.251Z,75.80
2024-01-24T09:04:06.756Z,76.00
2024-01-24T09:06:41.651Z,76.20
2024-01-24T09:09:16.934Z,76.10
2024-01-24T09:11:56.762Z,76.50
2024-01-24T09:14:31.759Z,76.40
2024-01-24T09:17:07.182Z,76.20
2024-01-24T09:19:43.282Z,76.10
2024-01-24T09:22:17.504Z,76.60
2024-01-24T09:24:51.675Z,75.80
2024-01-24T09:27:25.809Z,75.80
2024-01-24T09:30:00.685Z,74.90
2024-01-24T09:32:34.419Z,74.70
2024-01-24T09:35:12.209Z,74.10
2024-01-24T09:37:47.340Z,74.70
2024-01-24T09:40:21.605Z,74.30
2024-01-24T09:42:55.859Z,74.50
2024-01-24T09:45:30.023Z,74.10
2024-01-24T09:48:04.494Z,74.60
2024-01-24T09:50:41.267Z,75.60
2024-01-24T09:53:23.274Z,76.00
2024-01-24T09:55:58.486Z,76.00
2024-01-24T09:58:34.873Z,76.00
2024-01-24T10:01:09.584Z,75.40
2024-01-24T10:03:45.218Z,75.00
2024-01-24T10:06:21.411Z,74.80
2024-01-24T10:08:56.621Z,74.60
2024-01-24T10:11:31.550Z,74.90
2024-01-24T10:14:05.425Z,74.70
2024-01-24T10:16:39.640Z,74.70
2024-01-24T10:19:14.385Z,74.90
2024-01-24T10:21:54.300Z,74.80
2024-01-24T10:24:30.712Z,74.80
2024-01-24T10:27:05.265Z,74.70
2024-01-24T10:29:39.276Z,74.70
2024-01-24T10:32:14.751Z,74.60
2024-01-24T10:34:51.055Z,74.80
2024-01-24T10:37:27.383Z,74.60
2024-01-24T10:40:02.447Z,75.10
2024-01-24T10:42:43.169Z,75.00
2024-01-24T10:45:18.708Z,74.90
2024-01-24T10:47:54.151Z,74.90
2024-01-24T10:50:27.694Z,75.40
2024-01-24T10:53:05.955Z,75.80
2024-01-24T10:55:40.819Z,75.80
2024-01-24T10:58:17.957Z,75.60
2024-01-24T11:00:52.278Z,76.00
2024-01-24T11:03:27.531Z,75.80
2024-01-24T11:06:04.202Z,76.50
2024-01-24T11:08:51.906Z,76.00
2024-01-24T11:11:28.006Z,76.00
2024-01-24T11:14:05.061Z,75.40
2024-01-24T11:16:43.992Z,76.00
2024-01-24T11:19:36.445Z,76.30
2024-01-24T11:22:20.138Z,75.80
2024-01-24T11:25:03.385Z,75.90
2024-01-24T11:27:39.724Z,75.70
2024-01-24T11:30:43.241Z,75.80
2024-01-24T11:33:22.182Z,75.60
2024-01-24T11:35:57.355Z,75.60
2024-01-24T11:38:41.576Z,75.90
2024-01-24T11:41:31.649Z,76.30
2024-01-24T11:44:05.814Z,75.90
2024-01-24T11:46:40.355Z,76.40
2024-01-24T11:49:14.746Z,76.30
2024-01-24T11:51:48.765Z,76.50
2024-01-24T11:54:24.962Z,77.30
2024-01-24T11:57:02.724Z,77.50
2024-01-24T11:59:36.328Z,77.60
2024-01-24T12:02:12.235Z,77.80
2024-01-24T12:04:46.680Z,77.70
2024-01-24T12:07:19.090Z,77.40
2024-01-24T12:09:53.316Z,77.50
2024-01-24T12:12:33.482Z,77.90
2024-01-24T12:15:07.513Z,77.70
2024-01-24T12:17:43.907Z,77.50
2024-01-24T12:20:33.723Z,77.80
2024-01-24T12:23:08.772Z,78.40
2024-01-24T12:25:42.843Z,78.50
2024-01-24T12:28:22.763Z,78.40
2024-01-24T12:31:00.980Z,78.70
2024-01-24T12:33:38.827Z,78.50
2024-01-24T12:36:15.363Z,78.70
2024-01-24T12:38:49.705Z,78.90
2024-01-24T12:41:25.358Z,79.10
2024-01-24T12:44:01.736Z,79.40
2024-01-24T12:46:35.840Z,79.70
2024-01-24T12:49:10.394Z,79.90
2024-01-24T12:51:45.342Z,79.90
2024-01-24T12:54:19.614Z,79.80
2024-01-24T12:56:54.755Z,80.70
2024-01-24T12:59:31.820Z,80.60
2024-01-24T13:02:06.258Z,80.70
2024-01-24T13:04:41.302Z,81.10
2024-01-24T13:07:15.209Z,81.30
2024-01-24T13:09:54.820Z,81.40
2024-01-24T13:12:30.892Z,81.10
2024-01-24T13:15:09.069Z,81.10
2024-01-24T13:17:42.782Z,80.90
2024-01-24T13:20:18.006Z,80.70
2024-01-24T13:22:53.218Z,80.60
2024-01-24T13:25:28.858Z,80.30
2024-01-24T13:28:05.157Z,80.10
2024-01-24T13:30:42.150Z,79.70
2024-01-24T13:33:16.441Z,79.40
2024-01-24T13:35:50.555Z,79.10
2024-01-24T13:38:24.657Z,79.00
2024-01-24T13:40:58.770Z,78.90
2024-01-24T13:43:36.789Z,78.90
2024-01-24T13:46:13.799Z,78.60
2024-01-24T13:48:49.753Z,78.70
2024-01-24T13:51:31.146Z,78.70
2024-01-24T13:54:12.608Z,79.10
2024-01-24T13:56:49.175Z,79.50
2024-01-24T13:59:23.473Z,79.40
2024-01-24T14:02:00.970Z,79.40
2024-01-24T14:04:36.474Z,79.50
2024-01-24T14:07:11.242Z,79.40
2024-01-24T14:09:45.018Z,79.90
2024-01-24T14:12:20.312Z,80.20
2024-01-24T14:14:54.661Z,81.00
2024-01-24T14:17:30.914Z,81.20
2024-01-24T14:20:05.064Z,81.90
2024-01-24T14:22:39.942Z,81.90
2024-01-24T14:25:15.081Z,82.70
2024-01-24T14:27:48.800Z,82.70
2024-01-24T14:30:23.929Z,82.60
2024-01-24T14:32:59.589Z,82.80
2024-01-24T14:35:33.740Z,83.10
2024-01-24T14:38:08.106Z,83.40
2024-01-24T14:40:42.512Z,83.60
2024-01-24T14:43:17.102Z,83.50
2024-01-24T14:45:50.652Z,83.80
2024-01-24T14:48:26.409Z,84.10
2024-01-24T14:51:00.026Z,84.90
2024-01-24T14:53:33.607Z,84.70
2024-01-24T14:56:08.791Z,85.50
2024-01-24T14:58:43.089Z,85.40
2024-01-24T15:01:17.267Z,86.40
2024-01-24T15:03:53.403Z,86.20
2024-01-24T15:06:27.431Z,85.90
2024-01-24T15:09:01.376Z,86.40
2024-01-24T15:11:35.819Z,86.60
2024-01-24T15:14:10.332Z,87.00
2024-01-24T15:16:44.200Z,87.30
2024-01-24T15:19:20.288Z,87.60
2024-01-24T15:21:55.443Z,87.50
2024-01-24T15:24:29.990Z,87.70
2024-01-24T15:27:05.507Z,87.50
2024-01-24T15:29:40.175Z,87.90
2024-01-24T15:32:15.223Z,87.70
2024-01-24T15:34:51.284Z,88.10
2024-01-24T15:37:25.400Z,87.80
2024-01-24T15:39:59.420Z,87.60
2024-01-24T15:42:44.534Z,87.90
2024-01-24T15:45:19.620Z,88.00
2024-01-24T15:47:54.077Z,87.90
2024-01-24T15:50:30.624Z,87.90
2024-01-24T15:53:04.827Z,88.10
2024-01-24T15:55:39.628Z,88.80
2024-01-24T15:58:13.585Z,88.10
2024-01-24T16:00:47.535Z,88.10
2024-01-24T16:03:23.366Z,88.00
2024-01-24T16:05:59.620Z,87.90
2024-01-24T16:08:33.526Z,87.20
2024-01-24T16:11:07.768Z,88.00
2024-01-24T16:13:41.551Z,87.70
2024-01-24T16:16:17.432Z,88.00
2024-01-24T16:18:53.666Z,87.80
2024-01-24T16:21:30.344Z,88.90
2024-01-24T16:24:05.160Z,89.10
2024-01-24T16:26:38.904Z,88.80
2024-01-24T16:29:13.817Z,88.40
2024-01-24T16:31:48.274Z,89.20
2024-01-24T16:34:22.560Z,88.70
2024-01-24T16:36:58.778Z,88.50
2024-01-24T16:39:32.535Z,88.00
2024-01-24T16:42:08.303Z,88.00
2024-01-24T16:44:42.652Z,87.90
2024-01-24T16:47:17.231Z,87.50
2024-01-24T16:49:50.946Z,87.50
2024-01-24T16:52:27.424Z,88.00
2024-01-24T16:55:01.486Z,87.50
2024-01-24T16:57:35.823Z,87.70
2024-01-24T17:00:11.463Z,87.80
2024-01-24T17:02:50.360Z,87.70
2024-01-24T17:05:28.653Z,87.30
2024-01-24T17:08:05.492Z,87.20
2024-01-24T17:10:39.960Z,87.00
2024-01-24T17:13:14.715Z,87.00
2024-01-24T17:15:49.299Z,86.20
2024-01-24T17:18:27.326Z,86.20
2024-01-24T17:21:02.077Z,86.70
2024-01-24T17:23:38.365Z,86.80
2024-01-24T17:26:12.820Z,86.60
2024-01-24T17:28:47.692Z,86.50
2024-01-24T17:31:21.799Z,86.10
2024-01-24T17:33:55.829Z,86.50
2024-01-24T17:36:30.590Z,85.70
2024-01-24T17:39:07.138Z,85.40
2024-01-24T17:41:43.512Z,85.50
2024-01-24T17:44:17.078Z,85.40
2024-01-24T17:46:51.415Z,85.40
2024-01-24T17:49:25.512Z,85.30
2024-01-24T17:51:59.811Z,85.10
2024-01-24T17:54:36.226Z,85.00
2024-01-24T17:57:10.108Z,84.90
2024-01-24T17:59:43.698Z,84.70
2024-01-24T18:02:18.047Z,84.60
2024-01-24T18:04:52.057Z,84.30
2024-01-24T18:07:26.473Z,84.40
2024-01-24T18:10:03.721Z,84.60
2024-01-24T18:12:38.091Z,84.90
2024-01-24T18:15:12.411Z,84.30
2024-01-24T18:17:45.975Z,84.20
2024-01-24T18:20:21.160Z,83.90
2024-01-24T18:22:54.934Z,84.40
2024-01-24T18:25:33.081Z,83.80
2024-01-24T18:28:08.137Z,83.80
2024-01-24T18:30:42.398Z,83.80
2024-01-24T18:33:17.864Z,83.60
2024-01-24T18:35:51.808Z,83.90
2024-01-24T18:38:25.347Z,83.80
2024-01-24T18:41:01.274Z,83.60
2024-01-24T18:43:34.741Z,83.60
2024-01-24T18:46:08.774Z,83.50
2024-01-24T18:48:42.856Z,83.50
2024-01-24T18:51:19.358Z,83.50
2024-01-24T18:53:53.248Z,83.60
2024-01-24T18:56:29.065Z,83.50
2024-01-24T18:59:05.084Z,83.30
2024-01-24T19:01:39.584Z,83.60
2024-01-24T19:04:13.391Z,83.80
2024-01-24T19:06:47.309Z,83.30
2024-01-24T19:09:22.475Z,83.60
2024-01-24T19:11:58.853Z,83.60
2024-01-24T19:14:32.557Z,83.40
2024-01-24T19:17:07.159Z,83.70
2024-01-24T19:19:40.859Z,84.00
2024-01-24T19:22:14.965Z,83.90
2024-01-24T19:24:49.243Z,83.70
2024-01-24T19:27:24.915Z,84.10
2024-01-24T19:29:58.776Z,84.70
2024-01-24T19:32:32.824Z,84.90
2024-01-24T19:35:08.051Z,84.70
2024-01-24T19:37:41.788Z,84.70
2024-01-24T19:40:16.040Z,84.40
2024-01-24T19:42:52.677Z,84.60
2024-01-24T19:45:27.670Z,84.50
2024-01-24T19:48:01.709Z,84.80
2024-01-24T19:50:35.651Z,85.00
2024-01-24T19:53:12.980Z,84.40
2024-01-24T19:55:51.650Z,83.80
2024-01-24T19:58:27.249Z,84.30
2024-01-24T20:01:06.375Z,84.20
2024-01-24T20:03:41.804Z,84.10
2024-01-24T20:06:15.704Z,84.00
2024-01-24T20:08:51.454Z,84.20
2024-01-24T20:11:26.198Z,84.20
2024-01-24T20:14:03.879Z,84.10
2024-01-24T20:16:37.650Z,84.70
2024-01-24T20:19:12.239Z,84.90
2024-01-24T20:21:46.615Z,84.90
2024-01-24T20:24:21.774Z,85.10
2024-01-24T20:26:55.774Z,84.70
2024-01-24T20:29:31.817Z,85.30
2024-01-24T20:32:06.632Z,85.00
2024-01-24T20:34:40.551Z,84.80
2024-01-24T20:37:15.482Z,84.60
2024-01-24T20:39:49.215Z,84.60
2024-01-24T20:42:28.882Z,84.30
2024-01-24T20:45:06.511Z,84.40
2024-01-24T20:47:41.455Z,84.30
2024-01-24T20:50:16.680Z,84.90
2024-01-24T20:52:53.559Z,84.80
2024-01-24T20:55:28.132Z,84.40
2024-01-24T20:58:01.949Z,85.20
2024-01-24T21:00:37.994Z,85.20
2024-01-24T21:03:14.631Z,85.10
2024-01-24T21:05:50.622Z,84.90
2024-01-24T21:08:24.157Z,85.00
2024-01-24T21:11:03.161Z,85.00
2024-01-24T21:13:38.810Z,84.20
2024-01-24T21:16:14.680Z,84.00
2024-01-24T21:18:48.347Z,84.60
2024-01-24T21:21:23.733Z,84.70
2024-01-24T21:23:57.680Z,83.70
2024-01-24T21:26:32.667Z,84.20
2024-01-24T21:29:06.787Z,83.90
2024-01-24T21:31:43.190Z,83.70
2024-01-24T21:34:17.954Z,83.10
2024-01-24T21:36:51.656Z,83.00
2024-01-24T21:39:26.513Z,82.90
2024-01-24T21:42:00.589Z,83.50
2024-01-24T21:44:33.989Z,83.50
2024-01-24T21:47:11.249Z,83.50
2024-01-24T21:49:45.626Z,83.20
2024-01-24T21:52:20.240Z,83.30
2024-01-24T21:54:56.692Z,83.10
2024-01-24T21:57:30.569Z,83.30
2024-01-24T22:00:05.321Z,84.10
2024-01-24T22:02:41.843Z,83.90
2024-01-24T22:05:15.861Z,83.20
2024-01-24T22:07:52.128Z,83.40
2024-01-24T22:10:25.858Z,83.20
2024-01-24T22:13:01.931Z,82.90
2024-01-24T22:15:36.900Z,83.00
2024-01-24T22:18:15.580Z,82.80
2024-01-24T22:20:49.896Z,82.80
2024-01-24T22:23:24.902Z,82.80
2024-01-24T22:25:59.448Z,82.80
2024-01-24T22:28:34.134Z,82.20
2024-01-24T22:31:08.170Z,82.60
2024-01-24T22:33:47.023Z,82.70
2024-01-24T22:36:21.371Z,82.90
2024-01-24T22:38:56.171Z,83.30
2024-01-24T22:41:30.219Z,83.20
2024-01-24T22:44:05.037Z,83.10
2024-01-24T22:46:39.500Z,83.90
2024-01-24T22:49:15.965Z,83.50
2024-01-24T22:51:49.364Z,83.70
2024-01-24T22:54:24.458Z,83.70
2024-01-24T22:56:58.045Z,83.90
2024-01-24T22:59:32.536Z,83.90
2024-01-24T23:02:06.250Z,83.60
2024-01-24T23:04:42.378Z,83.60
2024-01-24T23:07:16.913Z,83.50
2024-01-24T23:09:53.518Z,82.90
2024-01-24T23:12:27.808Z,83.30
2024-01-24T23:15:02.008Z,83.50
2024-01-24T23:17:35.936Z,83.10
2024-01-24T23:20:12.428Z,82.80
2024-01-24T23:22:46.262Z,83.30
2024-01-24T23:25:20.736Z,83.10
2024-01-24T23:27:54.766Z,83.20
2024-01-24T23:30:28.581Z,83.50
2024-01-24T23:33:02.490Z,83.40
2024-01-24T23:35:38.514Z,83.10
2024-01-24T23:38:12.745Z,82.70
2024-01-24T23:40:47.658Z,83.40
2024-01-24T23:43:21.104Z,83.00
2024-01-24T23:45:54.983Z,82.60
2024-01-24T23:48:29.288Z,82.30
2024-01-24T23:51:05.098Z,82.80
2024-01-24T23:53:38.916Z,82.70
2024-01-24T23:56:12.878Z,82.40
2024-01-24T23:58:47.026Z,82.60
